Albert J Ellis Airport Jacksonville US
ICAO: KOAJ
IATA: OAJ
Category: Medium
Scheduled Services: No

Elevation: 94 ft
TransAlt. 18000 ft.

Airport Communications:
WILMINGTON APP/DEP:121.4
AWOS 3:124.475
CTAF/UNICOM:123

KOAJ Zoom In..

Runways:

(A) RW 05 length 7100 ft width 150 ft
ILS 108.70 / hdg 52

(B) RW 23 length 7100 ft width 150 ft
---- / hdg 232

Location; KOAJ
Day. 17 / Time. 06.56 Zulu
* Altimeter: 30.01
* Temperature: 23° c. 73.4°f.
* Wind from: 200° Speed 03 kn.
Dewpoint: 22° c.
Visibility: 9 Statute Miles.
Clouds: Clear (automated report).

KOAJ 170656Z AUTO 20003KT 9SM CLR 23/22 A3001 RMK AO2 SLP167 T02280222


Wind From 200°
Speed 03 kn.

 
 
jpsmedia.com for Web Design worldairports.se 2018   terms of use